createdAt,value
2022-09-29T00:03:47.501Z,6.50
2022-09-29T00:08:53.507Z,7.60
2022-09-29T00:13:59.822Z,6.50
2022-09-29T00:19:05.738Z,7.40
2022-09-29T00:24:11.322Z,6.90
2022-09-29T00:29:16.643Z,8.00
2022-09-29T00:34:22.055Z,8.00
2022-09-29T00:39:27.712Z,7.70
2022-09-29T00:44:56.289Z,7.70
2022-09-29T00:50:04.169Z,8.70
2022-09-29T00:55:13.083Z,8.00
2022-09-29T01:00:18.835Z,8.20
2022-09-29T01:05:27.584Z,7.20
2022-09-29T01:10:33.423Z,6.70
2022-09-29T01:15:40.308Z,6.70
2022-09-29T01:20:52.914Z,7.50
2022-09-29T01:26:27.764Z,7.40
2022-09-29T01:31:39.280Z,7.70
2022-09-29T01:36:49.279Z,8.60
2022-09-29T01:41:56.818Z,6.90
2022-09-29T01:47:06.711Z,7.90
2022-09-29T01:52:14.923Z,8.00
2022-09-29T01:57:23.372Z,7.90
2022-09-29T02:02:31.512Z,7.70
2022-09-29T02:07:38.550Z,8.50
2022-09-29T02:12:45.072Z,9.20
2022-09-29T02:17:53.365Z,8.30
2022-09-29T02:23:01.158Z,8.00
2022-09-29T02:28:07.383Z,8.60
2022-09-29T02:33:20.623Z,9.10
2022-09-29T02:38:31.667Z,8.40
2022-09-29T02:43:47.507Z,9.10
2022-09-29T02:49:02.357Z,7.90
2022-09-29T02:54:15.270Z,8.00
2022-09-29T02:59:25.157Z,8.10
2022-09-29T03:04:30.485Z,8.10
2022-09-29T03:09:36.184Z,7.80
2022-09-29T03:14:42.072Z,8.10
2022-09-29T03:19:49.958Z,7.90
2022-09-29T03:24:55.373Z,8.70
2022-09-29T03:30:02.035Z,8.30
2022-09-29T03:35:08.584Z,8.30
2022-09-29T03:40:13.879Z,9.20
2022-09-29T03:45:19.136Z,10.00
2022-09-29T03:50:24.463Z,9.70
2022-09-29T03:55:29.821Z,10.10
2022-09-29T04:00:35.321Z,10.90
2022-09-29T04:05:43.409Z,9.80
2022-09-29T04:10:49.576Z,9.90
2022-09-29T04:15:58.530Z,9.00
2022-09-29T04:21:08.167Z,10.60
2022-09-29T04:26:13.505Z,10.70
2022-09-29T04:31:19.178Z,10.60
2022-09-29T04:36:24.755Z,10.40
2022-09-29T04:41:33.582Z,11.50
2022-09-29T04:46:39.288Z,12.00
2022-09-29T04:51:44.619Z,11.00
2022-09-29T04:57:01.802Z,11.60
2022-09-29T05:02:11.933Z,11.10
2022-09-29T05:07:18.840Z,11.50
2022-09-29T05:12:24.142Z,11.40
2022-09-29T05:17:32.087Z,11.20
2022-09-29T05:22:37.465Z,12.10
2022-09-29T05:27:42.751Z,12.10
2022-09-29T05:32:48.032Z,12.90
2022-09-29T05:37:53.337Z,11.90
2022-09-29T05:42:59.470Z,11.70
2022-09-29T05:48:04.808Z,10.90
2022-09-29T05:53:10.671Z,12.70
2022-09-29T05:58:16.032Z,12.20
2022-09-29T06:03:21.382Z,13.10
2022-09-29T06:08:26.775Z,14.20
2022-09-29T06:13:32.757Z,16.00
2022-09-29T06:18:38.186Z,14.80
2022-09-29T06:23:45.960Z,16.00
2022-09-29T06:28:51.325Z,15.50
2022-09-29T06:33:59.113Z,16.20
2022-09-29T06:39:04.442Z,14.50
2022-09-29T06:44:10.549Z,13.80
2022-09-29T06:49:16.842Z,15.50
2022-09-29T06:54:25.198Z,14.80
2022-09-29T06:59:30.647Z,14.40
2022-09-29T07:04:36.092Z,15.30
2022-09-29T07:09:43.035Z,13.80
2022-09-29T07:14:48.257Z,12.60
2022-09-29T07:19:55.759Z,14.00
2022-09-29T07:25:01.185Z,10.50
2022-09-29T07:30:07.287Z,10.20
2022-09-29T07:35:12.957Z,10.10
2022-09-29T07:40:18.338Z,9.90
2022-09-29T07:45:23.791Z,8.90
2022-09-29T07:50:29.206Z,8.80
2022-09-29T07:55:34.721Z,9.60
2022-09-29T08:00:40.338Z,9.50
2022-09-29T08:05:45.792Z,8.20
2022-09-29T08:10:53.650Z,7.80
2022-09-29T08:16:03.879Z,7.50
2022-09-29T08:21:09.384Z,4.50
2022-09-29T08:26:16.001Z,5.40
2022-09-29T08:31:23.155Z,6.30
2022-09-29T08:36:29.562Z,7.00
2022-09-29T08:41:40.358Z,6.40
2022-09-29T08:46:47.519Z,6.70
2022-09-29T08:51:54.956Z,7.70
2022-09-29T08:57:00.739Z,8.90
2022-09-29T09:02:14.503Z,7.20
2022-09-29T09:07:22.491Z,8.00
2022-09-29T09:12:33.121Z,6.10
2022-09-29T09:17:49.939Z,6.50
2022-09-29T09:22:58.744Z,6.40
2022-09-29T09:28:13.456Z,7.10
2022-09-29T09:33:31.089Z,6.70
2022-09-29T09:38:42.503Z,5.80
2022-09-29T09:43:51.201Z,7.20
2022-09-29T09:49:01.202Z,5.50
2022-09-29T09:54:11.087Z,5.70
2022-09-29T09:59:21.645Z,5.90
2022-09-29T10:04:27.078Z,6.30
2022-09-29T10:09:32.498Z,6.10
2022-09-29T10:14:38.853Z,5.70
2022-09-29T10:19:58.831Z,5.30
2022-09-29T10:25:17.237Z,5.60
2022-09-29T10:30:24.413Z,4.90
2022-09-29T10:35:33.654Z,6.00
2022-09-29T10:40:54.323Z,4.70
2022-09-29T10:45:59.841Z,5.10
2022-09-29T10:51:06.579Z,5.10
2022-09-29T10:56:19.622Z,4.60
2022-09-29T11:01:26.689Z,4.70
2022-09-29T11:06:33.145Z,4.20
2022-09-29T11:11:39.919Z,4.40
2022-09-29T11:16:53.792Z,3.70
2022-09-29T11:22:14.585Z,3.80
2022-09-29T11:32:31.825Z,3.50
2022-09-29T11:37:49.098Z,3.00
2022-09-29T11:43:01.765Z,3.00
2022-09-29T11:48:31.179Z,2.40
2022-09-29T11:53:47.719Z,1.70
2022-09-29T11:59:04.744Z,2.00
2022-09-29T12:04:16.938Z,2.50
2022-09-29T12:09:30.457Z,2.10
2022-09-29T12:14:41.298Z,2.10
2022-09-29T12:19:49.869Z,2.10
2022-09-29T12:24:56.622Z,2.10
2022-09-29T12:30:05.145Z,1.60
2022-09-29T12:35:14.006Z,1.60
2022-09-29T12:40:21.472Z,2.40
2022-09-29T12:45:34.849Z,2.30
2022-09-29T12:50:42.568Z,1.60
2022-09-29T12:55:50.197Z,1.70
2022-09-29T13:00:59.710Z,2.20
2022-09-29T13:06:21.757Z,2.40
2022-09-29T13:11:40.448Z,2.40
2022-09-29T13:17:00.259Z,1.90
2022-09-29T13:27:20.020Z,1.80
2022-09-29T13:32:25.442Z,1.60
2022-09-29T13:37:33.943Z,1.60
2022-09-29T13:42:43.496Z,1.80
2022-09-29T13:47:49.613Z,1.60
2022-09-29T13:52:54.851Z,1.30
2022-09-29T13:58:00.192Z,1.50
2022-09-29T14:03:08.204Z,1.80
2022-09-29T14:08:20.395Z,1.40
2022-09-29T14:13:28.334Z,1.90
2022-09-29T14:18:35.532Z,1.60
2022-09-29T14:23:52.898Z,1.30
2022-09-29T14:28:58.882Z,1.80
2022-09-29T14:34:04.538Z,1.70
2022-09-29T14:39:27.452Z,1.30
2022-09-29T14:44:49.890Z,1.40
2022-09-29T14:50:19.369Z,1.50
2022-09-29T14:55:30.332Z,2.40
2022-09-29T15:00:45.453Z,1.60
2022-09-29T15:06:03.905Z,1.50
2022-09-29T15:11:25.828Z,2.30
2022-09-29T15:16:41.247Z,2.20
2022-09-29T15:21:50.575Z,2.30
2022-09-29T15:26:56.001Z,2.60
2022-09-29T15:32:03.479Z,2.30
2022-09-29T15:37:14.873Z,2.10
2022-09-29T15:42:23.657Z,3.10
2022-09-29T15:47:31.040Z,2.30
2022-09-29T15:52:36.925Z,2.40
2022-09-29T15:57:53.088Z,2.50
2022-09-29T16:03:03.117Z,2.80
2022-09-29T16:08:10.448Z,2.10
2022-09-29T16:13:19.199Z,3.60
2022-09-29T16:18:25.761Z,3.30
2022-09-29T16:23:37.111Z,4.10
2022-09-29T16:28:59.800Z,4.90
2022-09-29T16:34:05.629Z,3.10
2022-09-29T16:39:19.953Z,3.80
2022-09-29T16:44:27.914Z,2.40
2022-09-29T16:49:34.730Z,2.90
2022-09-29T16:54:42.936Z,2.60
2022-09-29T16:59:48.236Z,3.10
2022-09-29T17:04:53.953Z,5.60
2022-09-29T17:09:59.912Z,10.80
2022-09-29T17:15:05.395Z,21.00
2022-09-29T17:20:13.116Z,16.10
2022-09-29T17:25:18.631Z,8.50
2022-09-29T17:30:26.209Z,13.70
2022-09-29T17:35:32.903Z,22.10
2022-09-29T17:40:40.362Z,27.00
2022-09-29T17:45:46.247Z,24.10
2022-09-29T17:50:52.961Z,19.30
2022-09-29T17:56:03.600Z,12.00
2022-09-29T18:01:09.477Z,9.90
2022-09-29T18:06:19.670Z,12.60
2022-09-29T18:11:26.454Z,12.90
2022-09-29T18:16:32.127Z,15.00
2022-09-29T18:21:38.188Z,12.90
2022-09-29T18:26:45.780Z,11.20
2022-09-29T18:31:52.206Z,19.00
2022-09-29T18:36:57.433Z,39.90
2022-09-29T18:42:02.779Z,43.70
2022-09-29T18:47:10.328Z,45.90
2022-09-29T18:52:15.764Z,40.10
2022-09-29T18:57:22.902Z,29.80
2022-09-29T19:02:28.705Z,24.80
2022-09-29T19:07:34.211Z,22.80
2022-09-29T19:12:39.652Z,23.30
2022-09-29T19:17:45.348Z,21.60
2022-09-29T19:22:50.658Z,18.30
2022-09-29T19:27:56.640Z,16.50
2022-09-29T19:33:04.273Z,16.30
2022-09-29T19:38:35.190Z,15.90
2022-09-29T19:44:08.100Z,24.70
2022-09-29T19:49:14.396Z,19.60
2022-09-29T19:54:21.640Z,20.90
2022-09-29T19:59:29.341Z,27.90
2022-09-29T20:04:37.039Z,32.80
2022-09-29T20:09:42.370Z,27.40
2022-09-29T20:14:51.345Z,27.40
2022-09-29T20:19:57.797Z,28.70
2022-09-29T20:25:03.044Z,31.10
2022-09-29T20:30:10.306Z,30.80
2022-09-29T20:35:15.962Z,31.50
2022-09-29T20:40:21.333Z,30.20
2022-09-29T20:45:33.462Z,29.00
2022-09-29T20:50:45.085Z,31.30
2022-09-29T20:55:50.999Z,31.60
2022-09-29T21:00:56.821Z,30.90
2022-09-29T21:06:02.459Z,31.90
2022-09-29T21:11:09.109Z,30.40
2022-09-29T21:16:14.781Z,32.70
2022-09-29T21:21:22.764Z,30.60
2022-09-29T21:26:30.735Z,30.20
2022-09-29T21:31:36.585Z,28.70
2022-09-29T21:36:42.535Z,30.70
2022-09-29T21:41:48.212Z,27.50
2022-09-29T21:46:55.096Z,27.50
2022-09-29T21:52:02.121Z,25.60
2022-09-29T21:57:07.984Z,28.20
2022-09-29T22:02:13.968Z,31.10
2022-09-29T22:07:20.399Z,27.00
2022-09-29T22:12:27.071Z,28.30
2022-09-29T22:17:34.288Z,26.00
2022-09-29T22:22:39.822Z,29.40
2022-09-29T22:27:45.342Z,30.30
2022-09-29T22:32:51.651Z,33.60
2022-09-29T22:38:10.125Z,30.90
2022-09-29T22:43:31.685Z,24.40
2022-09-29T22:48:37.472Z,31.70
2022-09-29T22:53:42.949Z,30.50
2022-09-29T22:58:49.349Z,29.40
2022-09-29T23:03:54.740Z,27.00
2022-09-29T23:09:03.727Z,27.20
2022-09-29T23:14:09.237Z,23.60
2022-09-29T23:19:14.886Z,23.00
2022-09-29T23:24:23.220Z,22.10
2022-09-29T23:29:28.666Z,22.00
2022-09-29T23:34:34.854Z,20.60
2022-09-29T23:39:40.415Z,21.10
2022-09-29T23:44:46.128Z,21.00
2022-09-29T23:49:51.449Z,23.40
2022-09-29T23:54:56.970Z,25.40
